EDV3792 KDTW-KMDW
Flight info
| Callsign | EDV3792 |
|---|---|
| Flight time | N/A |
| Altitude | 34000 |
| Route | CLVIN3 CLVIN BAGEL PANGG7 |
| Aircraft | CRJ7/M-SDFGIRWY/S |
Departure
| Time | 2026-05-01 15:00 |
|---|---|
| Airport | Detroit Metropolitan Wayne County Airport (KDTW) |
Arrival
| Time | N/A |
|---|---|
| Airport | Chicago Midway International Airport (KMDW) |
| Time | Latitude | Longitude | Altitude | Speed | Heading |
|---|---|---|---|---|---|
| 2026-05-01 14:47 | 42.21131 | -83.35973 | 637 ft | 0 kts | 296° |
| 2026-05-01 14:52 | 42.21124 | -83.35949 | 637 ft | 2 kts | 297° |
| 2026-05-01 14:52 | 42.21116 | -83.35932 | 637 ft | 2 kts | 311° |
| 2026-05-01 14:52 | 42.21090 | -83.35916 | 637 ft | 2 kts | 3° |
| 2026-05-01 14:53 | 42.21075 | -83.35921 | 637 ft | 1 kts | 27° |
| 2026-05-01 14:53 | 42.21072 | -83.35923 | 638 ft | 0 kts | 30° |
| 2026-05-01 14:54 | 42.21121 | -83.35886 | 637 ft | 16 kts | 28° |
| 2026-05-01 14:54 | 42.21225 | -83.35812 | 637 ft | 17 kts | 28° |
| 2026-05-01 14:55 | 42.21330 | -83.35734 | 637 ft | 17 kts | 29° |
| 2026-05-01 14:55 | 42.21441 | -83.35652 | 637 ft | 18 kts | 29° |
| 2026-05-01 14:55 | 42.21539 | -83.35543 | 637 ft | 17 kts | 70° |
| 2026-05-01 14:55 | 42.21550 | -83.35368 | 635 ft | 20 kts | 91° |
| 2026-05-01 14:56 | 42.21551 | -83.35181 | 634 ft | 20 kts | 89° |
| 2026-05-01 14:56 | 42.21589 | -83.35040 | 634 ft | 15 kts | 45° |
| 2026-05-01 14:56 | 42.21704 | -83.34894 | 634 ft | 24 kts | 43° |
| 2026-05-01 14:56 | 42.21822 | -83.34741 | 634 ft | 17 kts | 54° |
| 2026-05-01 14:57 | 42.21835 | -83.34579 | 634 ft | 18 kts | 89° |
| 2026-05-01 14:57 | 42.22070 | -83.34345 | 634 ft | 31 kts | 28° |
| 2026-05-01 14:57 | 42.22256 | -83.34210 | 634 ft | 29 kts | 29° |
| 2026-05-01 14:58 | 42.22435 | -83.34076 | 632 ft | 30 kts | 28° |
| 2026-05-01 14:58 | 42.22573 | -83.33975 | 631 ft | 22 kts | 28° |
| 2026-05-01 14:58 | 42.22718 | -83.33868 | 631 ft | 24 kts | 32° |
| 2026-05-01 14:58 | 42.22847 | -83.33771 | 631 ft | 13 kts | 33° |
| 2026-05-01 14:59 | 42.22846 | -83.33679 | 631 ft | 12 kts | 118° |
| 2026-05-01 14:59 | 42.22785 | -83.33650 | 631 ft | 16 kts | 208° |
| 2026-05-01 14:59 | 42.22402 | -83.33935 | 631 ft | 107 kts | 208° |
| 2026-05-01 14:59 | 42.21541 | -83.34558 | 726 ft | 167 kts | 210° |
| 2026-05-01 15:00 | 42.19277 | -83.35981 | 2340 ft | 188 kts | 199° |
| 2026-05-01 15:00 | 42.17945 | -83.36565 | 2801 ft | 217 kts | 198° |
| 2026-05-01 15:00 | 42.16513 | -83.37160 | 3100 ft | 225 kts | 197° |
| 2026-05-01 15:01 | 42.14947 | -83.37793 | 3467 ft | 239 kts | 197° |
| 2026-05-01 15:01 | 42.13315 | -83.38441 | 3866 ft | 252 kts | 197° |
| 2026-05-01 15:01 | 42.11608 | -83.39117 | 4447 ft | 258 kts | 197° |
| 2026-05-01 15:01 | 42.09851 | -83.39812 | 5120 ft | 271 kts | 197° |
| 2026-05-01 15:02 | 42.08031 | -83.40533 | 5798 ft | 276 kts | 197° |
| 2026-05-01 15:02 | 42.06836 | -83.41110 | 6230 ft | 278 kts | 207° |
| 2026-05-01 15:02 | 42.04355 | -83.42033 | 7114 ft | 283 kts | 189° |
| 2026-05-01 15:02 | 42.02434 | -83.42509 | 7798 ft | 281 kts | 194° |
| 2026-05-01 15:03 | 42.00538 | -83.43080 | 8454 ft | 281 kts | 195° |
| 2026-05-01 15:03 | 41.98633 | -83.43689 | 9108 ft | 281 kts | 196° |
| 2026-05-01 15:03 | 41.96753 | -83.44306 | 9775 ft | 280 kts | 196° |
| 2026-05-01 15:03 | 41.94812 | -83.44465 | 10404 ft | 284 kts | 176° |
| 2026-05-01 15:04 | 41.92821 | -83.44175 | 11103 ft | 294 kts | 178° |
| 2026-05-01 15:04 | 41.90754 | -83.43893 | 11815 ft | 302 kts | 178° |
| 2026-05-01 15:04 | 41.88636 | -83.43602 | 12628 ft | 306 kts | 178° |
| 2026-05-01 15:04 | 41.86537 | -83.43316 | 13394 ft | 309 kts | 179° |
| 2026-05-01 15:05 | 41.84374 | -83.43024 | 14096 ft | 314 kts | 179° |
| 2026-05-01 15:05 | 41.82209 | -83.42728 | 14779 ft | 318 kts | 179° |
| 2026-05-01 15:05 | 41.79993 | -83.42429 | 15448 ft | 322 kts | 179° |
| 2026-05-01 15:05 | 41.77760 | -83.42127 | 16088 ft | 326 kts | 179° |
| 2026-05-01 15:06 | 41.75518 | -83.41823 | 16688 ft | 331 kts | 180° |
| 2026-05-01 15:06 | 41.73177 | -83.41507 | 17203 ft | 338 kts | 180° |
| 2026-05-01 15:06 | 41.70855 | -83.41368 | 17714 ft | 335 kts | 193° |
| 2026-05-01 15:06 | 41.68624 | -83.42227 | 18265 ft | 333 kts | 204° |
| 2026-05-01 15:07 | 41.66435 | -83.43216 | 18798 ft | 337 kts | 204° |
| 2026-05-01 15:07 | 41.64214 | -83.44224 | 19240 ft | 343 kts | 204° |
| 2026-05-01 15:07 | 41.61940 | -83.45255 | 19695 ft | 348 kts | 204° |
| 2026-05-01 15:07 | 41.59606 | -83.46310 | 20145 ft | 353 kts | 205° |
| 2026-05-01 15:08 | 41.57282 | -83.47362 | 20595 ft | 357 kts | 204° |
| 2026-05-01 15:08 | 41.54917 | -83.48431 | 21040 ft | 361 kts | 205° |
| 2026-05-01 15:08 | 41.52519 | -83.49512 | 21497 ft | 364 kts | 205° |
| 2026-05-01 15:08 | 41.50127 | -83.50593 | 21919 ft | 367 kts | 205° |
| 2026-05-01 15:09 | 41.47682 | -83.51696 | 22352 ft | 370 kts | 205° |
| 2026-05-01 15:09 | 41.45228 | -83.52797 | 22776 ft | 373 kts | 205° |
| 2026-05-01 15:09 | 41.42769 | -83.53906 | 23218 ft | 375 kts | 205° |
| 2026-05-01 15:09 | 41.40293 | -83.55020 | 23648 ft | 377 kts | 205° |
| 2026-05-01 15:10 | 41.37869 | -83.56325 | 24036 ft | 375 kts | 211° |
| 2026-05-01 15:10 | 41.32832 | -83.58473 | 24829 ft | 384 kts | 205° |
| 2026-05-01 15:10 | 41.30287 | -83.59560 | 25205 ft | 385 kts | 205° |
| 2026-05-01 15:11 | 41.27739 | -83.60674 | 25583 ft | 387 kts | 206° |
| 2026-05-01 15:11 | 41.22640 | -83.62934 | 26355 ft | 388 kts | 206° |
| 2026-05-01 15:11 | 41.20093 | -83.64067 | 26721 ft | 390 kts | 207° |
| 2026-05-01 15:12 | 41.17494 | -83.65228 | 27091 ft | 391 kts | 206° |
| 2026-05-01 15:12 | 41.12338 | -83.67524 | 27884 ft | 393 kts | 207° |
| 2026-05-01 15:12 | 41.09748 | -83.68677 | 28272 ft | 394 kts | 207° |
| 2026-05-01 15:13 | 41.02355 | -83.72925 | 29262 ft | 371 kts | 233° |
| 2026-05-01 15:14 | 41.00897 | -83.78947 | 29975 ft | 352 kts | 278° |
| 2026-05-01 15:14 | 41.01817 | -83.81950 | 30337 ft | 359 kts | 297° |
| 2026-05-01 15:14 | 41.04543 | -83.87493 | 30820 ft | 367 kts | 297° |
| 2026-05-01 15:15 | 41.07335 | -83.93220 | 31156 ft | 374 kts | 297° |
| 2026-05-01 15:15 | 41.10168 | -83.99039 | 31480 ft | 378 kts | 297° |
| 2026-05-01 15:16 | 41.13014 | -84.04890 | 31804 ft | 379 kts | 297° |
| 2026-05-01 15:16 | 41.15863 | -84.10764 | 32124 ft | 379 kts | 297° |
| 2026-05-01 15:17 | 41.18700 | -84.16617 | 32435 ft | 378 kts | 297° |
| 2026-05-01 15:18 | 41.22946 | -84.25408 | 32895 ft | 377 kts | 297° |
| 2026-05-01 15:18 | 41.24360 | -84.28343 | 33049 ft | 377 kts | 297° |
| 2026-05-01 15:19 | 41.28578 | -84.37103 | 33505 ft | 378 kts | 297° |
| 2026-05-01 15:19 | 41.31403 | -84.42999 | 33837 ft | 380 kts | 297° |
| 2026-05-01 15:19 | 41.32823 | -84.45970 | 33981 ft | 382 kts | 297° |
| 2026-05-01 15:20 | 41.37147 | -84.55021 | 33981 ft | 391 kts | 297° |
| 2026-05-01 15:21 | 41.40060 | -84.61134 | 33982 ft | 393 kts | 297° |
| 2026-05-01 15:21 | 41.42981 | -84.67277 | 33989 ft | 391 kts | 297° |
| 2026-05-01 15:21 | 41.44429 | -84.70315 | 34012 ft | 380 kts | 297° |
| 2026-05-01 15:22 | 41.47217 | -84.76195 | 33998 ft | 376 kts | 297° |
| 2026-05-01 15:22 | 41.48362 | -84.79313 | 33971 ft | 369 kts | 286° |
| 2026-05-01 15:22 | 41.48989 | -84.82575 | 33994 ft | 366 kts | 279° |
| 2026-05-01 15:23 | 41.49631 | -84.89295 | 33998 ft | 368 kts | 274° |
| 2026-05-01 15:23 | 41.49952 | -84.96155 | 33580 ft | 371 kts | 272° |
| 2026-05-01 15:24 | 41.50066 | -84.99532 | 33213 ft | 362 kts | 272° |
| 2026-05-01 15:24 | 41.50166 | -85.02847 | 32874 ft | 356 kts | 272° |
| 2026-05-01 15:24 | 41.50261 | -85.06114 | 32524 ft | 352 kts | 272° |
| 2026-05-01 15:24 | 41.50346 | -85.09360 | 32157 ft | 348 kts | 272° |
| 2026-05-01 15:25 | 41.50435 | -85.12576 | 31788 ft | 346 kts | 272° |
| 2026-05-01 15:25 | 41.50518 | -85.15796 | 31429 ft | 352 kts | 272° |
| 2026-05-01 15:25 | 41.50601 | -85.19062 | 31088 ft | 357 kts | 272° |
| 2026-05-01 15:25 | 41.50685 | -85.22355 | 30778 ft | 358 kts | 272° |
| 2026-05-01 15:26 | 41.50766 | -85.25671 | 30461 ft | 360 kts | 272° |
| 2026-05-01 15:26 | 41.50850 | -85.29014 | 30124 ft | 361 kts | 272° |
| 2026-05-01 15:26 | 41.50930 | -85.32340 | 29772 ft | 359 kts | 272° |
| 2026-05-01 15:26 | 41.51011 | -85.35645 | 29396 ft | 354 kts | 272° |
| 2026-05-01 15:27 | 41.51086 | -85.38874 | 28992 ft | 350 kts | 272° |
| 2026-05-01 15:27 | 41.51163 | -85.42069 | 28585 ft | 341 kts | 272° |
| 2026-05-01 15:27 | 41.51234 | -85.45205 | 28093 ft | 332 kts | 272° |
| 2026-05-01 15:28 | 41.51373 | -85.51266 | 27182 ft | 331 kts | 273° |
| 2026-05-01 15:28 | 41.51444 | -85.54336 | 26725 ft | 332 kts | 272° |
| 2026-05-01 15:28 | 41.51511 | -85.57439 | 26269 ft | 336 kts | 273° |
| 2026-05-01 15:29 | 41.51648 | -85.63702 | 25383 ft | 341 kts | 273° |
| 2026-05-01 15:29 | 41.51715 | -85.66876 | 24940 ft | 343 kts | 272° |
| 2026-05-01 15:29 | 41.51847 | -85.73221 | 24062 ft | 339 kts | 272° |
| 2026-05-01 15:30 | 41.51972 | -85.79299 | 23077 ft | 322 kts | 272° |
| 2026-05-01 15:31 | 41.52208 | -85.91335 | 21248 ft | 329 kts | 273° |
| 2026-05-01 15:31 | 41.52321 | -85.97366 | 20300 ft | 322 kts | 273° |
| 2026-05-01 15:32 | 41.52428 | -86.03274 | 19365 ft | 317 kts | 273° |
| 2026-05-01 15:32 | 41.52495 | -86.09076 | 18443 ft | 313 kts | 272° |
| 2026-05-01 15:33 | 41.52459 | -86.17689 | 17065 ft | 311 kts | 272° |
| 2026-05-01 15:34 | 41.52418 | -86.26184 | 15622 ft | 303 kts | 272° |